createdAt,value
2023-03-28T00:01:06.112Z,22.52
2023-03-28T00:05:06.248Z,22.53
2023-03-28T00:09:06.588Z,22.52
2023-03-28T00:13:06.423Z,22.48
2023-03-28T00:17:06.385Z,22.44
2023-03-28T00:21:06.561Z,22.43
2023-03-28T00:25:06.390Z,22.43
2023-03-28T00:29:06.582Z,22.44
2023-03-28T00:33:06.368Z,22.43
2023-03-28T00:37:06.294Z,22.44
2023-03-28T00:41:06.622Z,22.44
2023-03-28T00:45:06.619Z,22.43
2023-03-28T00:49:06.588Z,22.42
2023-03-28T00:53:06.267Z,22.42
2023-03-28T00:57:06.273Z,22.42
2023-03-28T01:01:06.614Z,22.41
2023-03-28T01:05:06.578Z,22.40
2023-03-28T01:09:06.164Z,22.40
2023-03-28T01:13:06.116Z,22.40
2023-03-28T01:17:06.586Z,22.42
2023-03-28T01:21:06.069Z,22.41
2023-03-28T01:25:06.109Z,22.40
2023-03-28T01:29:06.185Z,22.39
2023-03-28T01:33:06.118Z,22.41
2023-03-28T01:37:06.112Z,22.40
2023-03-28T01:41:06.136Z,22.41
2023-03-28T01:45:06.086Z,22.40
2023-03-28T01:49:05.973Z,22.41
2023-03-28T01:53:05.913Z,22.41
2023-03-28T01:57:06.131Z,22.41
2023-03-28T02:01:06.129Z,22.38
2023-03-28T02:05:06.184Z,22.37
2023-03-28T02:09:06.115Z,22.36
2023-03-28T02:13:05.898Z,22.36
2023-03-28T02:17:06.129Z,22.37
2023-03-28T02:21:06.112Z,22.36
2023-03-28T02:25:06.131Z,22.36
2023-03-28T02:29:05.952Z,22.37
2023-03-28T02:33:06.045Z,22.37
2023-03-28T02:37:06.123Z,22.36
2023-03-28T02:41:06.127Z,22.37
2023-03-28T02:45:06.177Z,22.37
2023-03-28T02:49:05.941Z,22.37
2023-03-28T02:53:06.125Z,22.37
2023-03-28T02:57:06.150Z,22.37
2023-03-28T03:01:06.187Z,22.37
2023-03-28T03:05:06.161Z,22.38
2023-03-28T03:09:05.928Z,22.37
2023-03-28T03:13:06.113Z,22.38
2023-03-28T03:17:06.183Z,22.36
2023-03-28T03:21:06.156Z,22.36
2023-03-28T03:25:06.137Z,22.36
2023-03-28T03:29:05.866Z,22.36
2023-03-28T03:33:06.207Z,22.37
2023-03-28T03:37:06.169Z,22.36
2023-03-28T03:41:06.166Z,22.36
2023-03-28T03:45:06.118Z,22.35
2023-03-28T03:49:05.891Z,22.35
2023-03-28T03:53:05.918Z,22.35
2023-03-28T03:57:06.249Z,22.34
2023-03-28T04:01:06.201Z,22.34
2023-03-28T04:05:05.964Z,22.34
2023-03-28T04:09:06.181Z,22.35
2023-03-28T04:13:05.954Z,22.34
2023-03-28T04:17:06.200Z,22.33
2023-03-28T04:21:06.220Z,22.33
2023-03-28T04:25:06.041Z,22.33
2023-03-28T04:29:06.185Z,22.32
2023-03-28T04:33:06.083Z,22.33
2023-03-28T04:37:06.165Z,22.31
2023-03-28T04:41:06.204Z,22.29
2023-03-28T04:45:06.128Z,22.27
2023-03-28T04:49:06.659Z,22.24
2023-03-28T04:53:06.265Z,22.23
2023-03-28T04:57:06.885Z,22.22
2023-03-28T05:01:06.734Z,22.20
2023-03-28T05:05:06.526Z,22.19
2023-03-28T05:09:06.572Z,22.19
2023-03-28T05:13:07.226Z,22.19
2023-03-28T05:17:07.221Z,22.20
2023-03-28T05:21:06.810Z,22.23
2023-03-28T05:25:07.212Z,22.25
2023-03-28T05:29:07.173Z,22.28
2023-03-28T05:33:07.078Z,22.30
2023-03-28T05:37:07.196Z,22.33
2023-03-28T05:41:06.982Z,22.35
2023-03-28T05:45:07.178Z,22.38
2023-03-28T05:49:06.913Z,22.41
2023-03-28T05:53:07.209Z,22.44
2023-03-28T05:57:07.259Z,22.47
2023-03-28T06:01:06.871Z,22.48
2023-03-28T06:05:07.305Z,22.49
2023-03-28T06:09:07.228Z,22.47
2023-03-28T06:13:07.217Z,22.47
2023-03-28T06:17:07.211Z,22.47
2023-03-28T06:21:06.908Z,22.47
2023-03-28T06:25:07.219Z,22.46
2023-03-28T06:29:07.222Z,22.47
2023-03-28T06:33:07.307Z,22.48
2023-03-28T06:37:07.235Z,22.49
2023-03-28T06:41:06.853Z,22.51
2023-03-28T06:45:07.220Z,22.51
2023-03-28T06:49:07.233Z,22.50
2023-03-28T06:53:07.231Z,22.52
2023-03-28T06:57:06.886Z,22.56
2023-03-28T07:01:07.236Z,22.59
2023-03-28T07:05:07.263Z,22.60
2023-03-28T07:09:07.252Z,22.62
2023-03-28T07:13:07.464Z,22.66
2023-03-28T07:17:07.400Z,22.70
2023-03-28T07:21:07.511Z,22.71
2023-03-28T07:25:07.359Z,22.73
2023-03-28T07:29:07.338Z,22.73
2023-03-28T07:33:17.750Z,22.73
2023-03-28T07:37:08.249Z,22.74
2023-03-28T07:41:07.242Z,22.78
2023-03-28T07:45:07.803Z,22.81
2023-03-28T07:49:07.862Z,22.85
2023-03-28T07:53:07.348Z,23.06
2023-03-28T07:57:07.380Z,23.33
2023-03-28T08:01:07.299Z,23.52
2023-03-28T08:05:07.302Z,23.73
2023-03-28T08:09:07.216Z,23.89
2023-03-28T08:13:07.228Z,24.04
2023-03-28T08:17:07.305Z,24.16
2023-03-28T08:21:07.295Z,24.34
2023-03-28T08:25:07.297Z,24.53
2023-03-28T08:29:07.293Z,24.71
2023-03-28T08:33:07.064Z,24.87
2023-03-28T08:37:07.325Z,25.02
2023-03-28T08:41:07.304Z,25.13
2023-03-28T08:45:07.811Z,25.12
2023-03-28T08:49:07.812Z,25.19
2023-03-28T08:53:07.778Z,25.25
2023-03-28T08:57:08.266Z,25.32
2023-03-28T09:01:08.329Z,25.33
2023-03-28T09:05:22.545Z,25.06
2023-03-28T09:09:09.328Z,24.57
2023-03-28T09:13:08.098Z,24.24
2023-03-28T09:17:08.313Z,24.03
2023-03-28T09:21:08.293Z,23.80
2023-03-28T09:25:08.575Z,23.67
2023-03-28T09:29:07.948Z,23.60
2023-03-28T09:33:08.365Z,23.44
2023-03-28T09:37:08.381Z,23.42
2023-03-28T09:44:16.448Z,23.28
2023-03-28T09:48:19.141Z,23.30
2023-03-28T09:52:16.489Z,23.62
2023-03-28T09:56:16.481Z,23.93
2023-03-28T10:00:16.518Z,23.72
2023-03-28T10:04:16.125Z,23.26
2023-03-28T10:08:16.011Z,23.09
2023-03-28T10:12:15.996Z,23.12
2023-03-28T10:16:16.036Z,23.42
2023-03-28T10:20:15.935Z,23.56
2023-03-28T10:24:15.877Z,23.65
2023-03-28T10:28:15.832Z,23.70
2023-03-28T10:32:15.812Z,23.53
2023-03-28T10:36:15.886Z,23.41
2023-03-28T10:40:15.863Z,23.37
2023-03-28T10:44:15.797Z,23.28
2023-03-28T10:48:15.929Z,23.45
2023-03-28T10:52:15.940Z,23.64
2023-03-28T10:56:15.904Z,23.85
2023-03-28T11:00:15.843Z,23.98
2023-03-28T11:04:15.824Z,24.09
2023-03-28T11:08:15.785Z,24.15
2023-03-28T11:12:26.598Z,24.20
2023-03-28T11:16:16.744Z,24.29
2023-03-28T11:20:15.654Z,24.32
2023-03-28T11:24:15.644Z,24.33
2023-03-28T11:28:15.600Z,24.35
2023-03-28T11:32:15.702Z,24.36
2023-03-28T11:36:15.788Z,24.39
2023-03-28T11:40:15.872Z,24.44
2023-03-28T11:44:15.938Z,24.37
2023-03-28T11:48:16.166Z,24.18
2023-03-28T11:52:16.073Z,24.06
2023-03-28T11:56:16.016Z,23.98
2023-03-28T12:00:32.053Z,23.94
2023-03-28T12:04:17.118Z,23.91
2023-03-28T12:08:15.922Z,23.88
2023-03-28T12:12:16.528Z,23.81
2023-03-28T12:16:16.361Z,23.70
2023-03-28T12:20:16.545Z,23.65
2023-03-28T12:24:17.030Z,23.65
2023-03-28T12:28:16.533Z,23.64
2023-03-28T12:32:17.018Z,23.64
2023-03-28T12:36:19.576Z,23.54
2023-03-28T12:40:17.044Z,23.46
2023-03-28T12:44:17.062Z,23.45
2023-03-28T12:48:16.551Z,23.41
2023-03-28T12:52:16.554Z,23.27
2023-03-28T12:56:16.426Z,23.26
2023-03-28T13:00:16.458Z,23.25
2023-03-28T13:04:23.616Z,23.24
2023-03-28T13:08:16.580Z,23.24
2023-03-28T13:12:16.257Z,23.25
2023-03-28T13:16:16.598Z,23.25
2023-03-28T13:20:16.250Z,23.27
2023-03-28T13:24:16.178Z,23.26
2023-03-28T13:28:16.140Z,23.24
2023-03-28T13:32:16.136Z,23.20
2023-03-28T13:36:16.138Z,23.09
2023-03-28T13:40:16.602Z,23.02
2023-03-28T13:44:16.578Z,22.98
2023-03-28T13:48:16.588Z,22.96
2023-03-28T13:52:16.727Z,22.95
2023-03-28T13:56:17.120Z,22.95
2023-03-28T14:00:17.141Z,22.92
2023-03-28T14:04:17.625Z,22.86
2023-03-28T14:08:17.619Z,22.84
2023-03-28T14:12:17.721Z,22.85
2023-03-28T14:16:18.019Z,22.88
2023-03-28T14:20:18.633Z,22.89
2023-03-28T14:24:18.598Z,22.89
2023-03-28T14:28:18.633Z,22.88
2023-03-28T14:32:18.699Z,22.87
2023-03-28T14:36:19.037Z,22.84
2023-03-28T14:40:21.108Z,22.81
2023-03-28T14:44:19.613Z,22.80
2023-03-28T14:48:19.331Z,22.79
2023-03-28T14:52:19.618Z,22.80
2023-03-28T14:56:19.239Z,22.83
2023-03-28T15:00:19.626Z,22.78
2023-03-28T15:04:19.650Z,22.73
2023-03-28T15:08:19.128Z,22.40
2023-03-28T15:12:19.093Z,22.28
2023-03-28T15:16:19.141Z,22.45
2023-03-28T15:20:19.098Z,22.70
2023-03-28T15:24:18.978Z,22.94
2023-03-28T15:28:18.941Z,23.12
2023-03-28T15:32:18.903Z,23.24
2023-03-28T15:36:19.163Z,23.39
2023-03-28T15:40:19.162Z,23.48
2023-03-28T15:44:18.792Z,23.59
2023-03-28T15:48:19.140Z,23.66
2023-03-28T15:52:19.121Z,23.75
2023-03-28T15:56:19.136Z,23.78
2023-03-28T16:00:19.160Z,23.70
2023-03-28T16:04:18.883Z,23.63
2023-03-28T16:08:18.855Z,23.63
2023-03-28T16:12:19.177Z,23.62
2023-03-28T16:16:18.966Z,23.59
2023-03-28T16:20:19.119Z,23.57
2023-03-28T16:24:18.814Z,23.58
2023-03-28T16:28:19.159Z,23.60
2023-03-28T16:32:18.636Z,23.62
2023-03-28T16:36:18.736Z,23.66
2023-03-28T16:40:18.646Z,23.72
2023-03-28T16:44:18.495Z,23.76
2023-03-28T16:48:18.685Z,23.82
2023-03-28T16:52:18.668Z,23.86
2023-03-28T16:56:18.689Z,23.84
2023-03-28T17:00:18.663Z,23.83
2023-03-28T17:04:18.301Z,23.80
2023-03-28T17:08:18.299Z,23.79
2023-03-28T17:12:18.676Z,23.78
2023-03-28T17:16:18.673Z,23.75
2023-03-28T17:20:18.191Z,23.73
2023-03-28T17:24:18.170Z,23.72
2023-03-28T17:28:18.160Z,23.70
2023-03-28T17:32:18.166Z,23.71
2023-03-28T17:36:21.018Z,23.71
2023-03-28T17:40:18.050Z,23.70
2023-03-28T17:44:17.995Z,23.68
2023-03-28T17:48:18.171Z,23.66
2023-03-28T17:52:17.922Z,23.65
2023-03-28T17:56:18.158Z,23.64
2023-03-28T18:00:17.829Z,23.64
2023-03-28T18:04:18.006Z,23.62
2023-03-28T18:08:18.186Z,23.61
2023-03-28T18:12:17.924Z,23.60
2023-03-28T18:16:18.501Z,23.60
2023-03-28T18:20:17.833Z,23.60
2023-03-28T18:24:18.181Z,23.62
2023-03-28T18:28:18.215Z,23.62
2023-03-28T18:32:17.750Z,23.67
2023-03-28T18:36:17.733Z,23.73
2023-03-28T18:40:17.833Z,23.79
2023-03-28T18:44:18.260Z,23.85
2023-03-28T18:48:18.231Z,23.90
2023-03-28T18:52:18.238Z,23.96
2023-03-28T18:56:17.926Z,23.99
2023-03-28T19:00:18.286Z,24.02
2023-03-28T19:04:18.333Z,24.07
2023-03-28T19:08:17.804Z,24.03
2023-03-28T19:12:18.258Z,23.99
2023-03-28T19:16:17.746Z,23.95
2023-03-28T19:20:17.730Z,23.91
2023-03-28T19:24:17.674Z,23.88
2023-03-28T19:28:18.245Z,23.84
2023-03-28T19:32:18.101Z,23.81
2023-03-28T19:36:18.092Z,23.78
2023-03-28T19:40:18.226Z,23.77
2023-03-28T19:44:18.255Z,23.76
2023-03-28T19:48:18.281Z,23.74
2023-03-28T19:52:18.230Z,23.73
2023-03-28T19:56:17.859Z,23.71
2023-03-28T20:00:18.268Z,23.70
2023-03-28T20:04:18.335Z,23.68
2023-03-28T20:08:17.735Z,23.67
2023-03-28T20:12:17.750Z,23.65
2023-03-28T20:16:17.757Z,23.63
2023-03-28T20:20:18.291Z,23.62
2023-03-28T20:24:17.729Z,23.59
2023-03-28T20:28:17.560Z,23.57
2023-03-28T20:32:17.520Z,23.57
2023-03-28T20:36:17.793Z,23.57
2023-03-28T20:40:17.766Z,23.56
2023-03-28T20:44:17.791Z,23.56
2023-03-28T20:48:17.772Z,23.56
2023-03-28T20:52:17.528Z,23.55
2023-03-28T20:56:17.750Z,23.54
2023-03-28T21:00:17.448Z,23.54
2023-03-28T21:04:17.747Z,23.53
2023-03-28T21:08:17.807Z,23.52
2023-03-28T21:12:17.325Z,23.52
2023-03-28T21:16:17.877Z,23.52
2023-03-28T21:20:17.312Z,23.52
2023-03-28T21:24:17.299Z,23.51
2023-03-28T21:28:17.239Z,23.50
2023-03-28T21:32:17.322Z,23.50
2023-03-28T21:36:17.401Z,23.49
2023-03-28T21:40:17.828Z,23.49
2023-03-28T21:44:17.793Z,23.49
2023-03-28T21:48:17.694Z,23.49
2023-03-28T21:52:18.318Z,23.48
2023-03-28T21:56:18.033Z,23.48
2023-03-28T22:00:18.308Z,23.48
2023-03-28T22:04:18.815Z,23.48
2023-03-28T22:08:18.476Z,23.48
2023-03-28T22:12:18.799Z,23.48
2023-03-28T22:16:18.884Z,23.47
2023-03-28T22:20:19.334Z,23.48
2023-03-28T22:24:19.300Z,23.47
2023-03-28T22:28:19.011Z,23.47
2023-03-28T22:32:19.316Z,23.48
2023-03-28T22:36:19.356Z,23.47
2023-03-28T22:40:19.374Z,23.48
2023-03-28T22:44:19.219Z,23.47
2023-03-28T22:48:19.259Z,23.47
2023-03-28T22:52:19.309Z,23.47
2023-03-28T22:56:19.379Z,23.46
2023-03-28T23:00:19.870Z,23.47
2023-03-28T23:04:19.402Z,23.47
2023-03-28T23:08:20.845Z,23.47
2023-03-28T23:12:19.818Z,23.47
2023-03-28T23:16:19.905Z,23.46
2023-03-28T23:20:19.844Z,23.47
2023-03-28T23:24:19.549Z,23.47
2023-03-28T23:28:20.404Z,23.46
2023-03-28T23:32:19.870Z,23.46
2023-03-28T23:36:19.869Z,23.47
2023-03-28T23:40:20.326Z,23.46
2023-03-28T23:44:19.991Z,23.47
2023-03-28T23:48:20.322Z,23.46
2023-03-28T23:52:20.352Z,23.47
2023-03-28T23:56:20.850Z,23.46
